Ann Arbor, MI

9:15 PM EST on February 24, 2017 (GMT -0500)
Washington and Crest | | Change Station
Active Advisory: Severe Thunderstorm Watch

Elev 879 ft 42.28 °N, 83.77 °W | Updated 10 seconds ago

Mostly Cloudy
Mostly Cloudy
57.9 °F
Feels Like 57.9 °F
N
0.0
Wind Variable Wind from SW
Gusts 0.0 mph

Today
High -- | Low -- °F
--% Chance of Precip.
Yesterday
High -- | Low -- °F
Precip. -- in
Pressure 29.43 in
Visibility 10.0 miles
Clouds Few 4700 ft
Few 5500 ft
Dew Point 54 °F
Humidity 87%
Rainfall 0.11 in
Snow Depth Not available.
7:17 AM 6:19 PM
Waning Crescent, 3% visible
METAR KARB 250153Z AUTO 16007KT 10SM FEW047 FEW055 15/12 A2943 RMK AO2 LTG DSNT SW-N SLP966 T01500117 $
Pressure 29.43 in
Visibility 10.0 miles
Clouds Few 4700 ft
Few 5500 ft
Dew Point 54 °F
Humidity 87%
Rainfall 0.11 in
Snow Depth Not available.
7:17 AM 6:19 PM
Waning Crescent, 3% visible
METAR KARB 250153Z AUTO 16007KT 10SM FEW047 FEW055 15/12 A2943 RMK AO2 LTG DSNT SW-N SLP966 T01500117 $

Get Your Daily Forecast Email!

Thanks for signing up!

Be on the lookout for a verification email in your inbox.

You'll start receiving the daily forecast at 8 AM.

×

10-Day Weather Forecast

Almanac

Astronomy

Feb. 24, 2017 Rise Set
Actual Time
Civil Twilight
Nautical Twilight
Astronomical Twilight
Moon
Length of Visible Light
Length of Day
Tomorrow will be .
, % of the Moon is Illuminated

Today's Extremes

State Highs State Lows

Community

WunderPhotos

Upload Photos

1,962,540 photos uploaded!

WunderBlog® & News

Nearby

Air Quality

  Air Quality AQ Index Pollutant
Not available.

Snow Depth

Station Depth Elevation

Earthquake Activity

City Distance Mag. Time & Date
Minimum magnitude displayed is 2.5.

Coastal Water Temperatures

Place Temperature

Stations

Nearby Weather Stations

Station Location Temp. Windchill Dew Point Humidity Wind Precip. Elev Updated Type
                   

Watches & Warnings

Severe Thunderstorm Watch
Issued: 9:03 PM EST Feb. 24, 2017 – National Weather Service

Severe Thunderstorm Watch 37 remains in effect until 1000 PM EST
for the following locations


Mi
. Michigan counties included are

Genesee Lapeer Lenawee
Livingston Macomb Monroe
Oakland St. Clair Sanilac
Shiawassee Washtenaw Wayne